createdAt,value
2022-10-15T00:01:26.319Z,58.90
2022-10-15T00:03:54.087Z,58.85
2022-10-15T00:06:21.889Z,58.67
2022-10-15T00:08:49.450Z,58.79
2022-10-15T00:11:20.472Z,58.92
2022-10-15T00:13:49.258Z,58.49
2022-10-15T00:16:21.367Z,58.85
2022-10-15T00:18:49.552Z,58.95
2022-10-15T00:21:18.958Z,58.97
2022-10-15T00:23:47.780Z,58.96
2022-10-15T00:26:21.978Z,59.05
2022-10-15T00:28:52.276Z,58.61
2022-10-15T00:31:27.251Z,58.68
2022-10-15T00:33:58.100Z,58.43
2022-10-15T00:36:28.545Z,58.50
2022-10-15T00:38:56.412Z,58.65
2022-10-15T00:41:31.333Z,58.96
2022-10-15T00:44:21.143Z,58.71
2022-10-15T00:46:51.703Z,58.29
2022-10-15T00:49:30.387Z,58.38
2022-10-15T00:52:02.548Z,58.13
2022-10-15T00:54:34.794Z,57.69
2022-10-15T00:57:02.352Z,57.71
2022-10-15T00:59:31.426Z,57.94
2022-10-15T01:02:01.146Z,58.02
2022-10-15T01:04:30.888Z,57.93
2022-10-15T01:06:58.533Z,57.91
2022-10-15T01:09:26.436Z,57.85
2022-10-15T01:11:56.151Z,57.86
2022-10-15T01:14:40.171Z,58.25
2022-10-15T01:17:19.567Z,57.95
2022-10-15T01:20:24.939Z,58.75
2022-10-15T01:23:22.414Z,59.13
2022-10-15T01:26:31.230Z,59.32
2022-10-15T01:29:04.351Z,59.23
2022-10-15T01:32:17.977Z,59.55
2022-10-15T01:34:51.594Z,59.60
2022-10-15T01:37:36.661Z,60.07
2022-10-15T01:40:26.076Z,60.18
2022-10-15T01:43:03.903Z,60.33
2022-10-15T01:45:54.778Z,60.21
2022-10-15T01:48:45.730Z,59.48
2022-10-15T01:51:15.595Z,59.90
2022-10-15T01:53:44.932Z,59.90
2022-10-15T01:56:19.377Z,60.26
2022-10-15T01:58:49.852Z,59.86
2022-10-15T02:01:18.324Z,59.84
2022-10-15T02:03:51.163Z,59.82
2022-10-15T02:06:42.247Z,60.00
2022-10-15T02:09:18.690Z,59.93
2022-10-15T02:12:13.800Z,60.26
2022-10-15T02:14:46.411Z,59.85
2022-10-15T02:17:16.729Z,60.07
2022-10-15T02:20:20.749Z,60.31
2022-10-15T02:23:41.077Z,60.39
2022-10-15T02:26:11.633Z,60.11
2022-10-15T02:28:45.228Z,60.25
2022-10-15T02:31:16.359Z,60.17
2022-10-15T02:33:45.197Z,60.13
2022-10-15T02:36:15.367Z,60.04
2022-10-15T02:38:45.181Z,59.97
2022-10-15T02:41:13.508Z,60.22
2022-10-15T02:43:41.917Z,60.04
2022-10-15T02:46:14.938Z,60.24
2022-10-15T02:48:44.605Z,60.08
2022-10-15T02:51:12.127Z,60.15
2022-10-15T02:53:39.545Z,59.83
2022-10-15T02:56:07.230Z,59.83
2022-10-15T02:58:34.931Z,59.90
2022-10-15T03:01:02.850Z,59.78
2022-10-15T03:03:30.383Z,59.77
2022-10-15T03:05:57.865Z,59.92
2022-10-15T03:08:25.365Z,59.87
2022-10-15T03:10:53.025Z,59.99
2022-10-15T03:13:20.829Z,59.91
2022-10-15T03:15:52.303Z,59.71
2022-10-15T03:18:22.226Z,59.32
2022-10-15T03:20:54.963Z,59.35
2022-10-15T03:23:23.709Z,59.02
2022-10-15T03:25:59.368Z,59.08
2022-10-15T03:28:29.672Z,58.71
2022-10-15T03:30:58.010Z,58.34
2022-10-15T03:33:28.586Z,58.51
2022-10-15T03:35:57.519Z,58.49
2022-10-15T03:38:25.656Z,58.38
2022-10-15T03:40:54.259Z,58.14
2022-10-15T03:43:41.933Z,58.20
2022-10-15T03:46:11.194Z,58.09
2022-10-15T03:48:43.207Z,57.99
2022-10-15T03:51:15.654Z,57.71
2022-10-15T03:53:47.973Z,57.89
2022-10-15T03:56:16.096Z,57.84
2022-10-15T03:58:43.657Z,57.78
2022-10-15T04:01:17.800Z,57.57
2022-10-15T04:03:45.867Z,57.84
2022-10-15T04:06:16.683Z,57.74
2022-10-15T04:08:45.483Z,57.47
2022-10-15T04:11:21.182Z,57.42
2022-10-15T04:13:58.877Z,57.30
2022-10-15T04:16:26.519Z,57.55
2022-10-15T04:18:53.958Z,57.20
2022-10-15T04:21:21.663Z,57.16
2022-10-15T04:23:56.215Z,57.12
2022-10-15T04:26:32.854Z,57.22
2022-10-15T04:29:01.678Z,57.36
2022-10-15T04:31:29.999Z,56.95
2022-10-15T04:33:58.883Z,57.10
2022-10-15T04:36:27.675Z,56.83
2022-10-15T04:39:00.779Z,56.78
2022-10-15T04:41:42.913Z,56.76
2022-10-15T04:44:21.730Z,56.59
2022-10-15T04:46:54.680Z,56.76
2022-10-15T04:49:42.524Z,56.66
2022-10-15T04:52:26.638Z,56.39
2022-10-15T04:54:58.741Z,56.65
2022-10-15T04:57:27.343Z,56.73
2022-10-15T04:59:57.720Z,56.83
2022-10-15T05:02:28.640Z,56.64
2022-10-15T05:05:09.775Z,56.54
2022-10-15T05:07:46.863Z,56.76
2022-10-15T05:10:15.288Z,56.87
2022-10-15T05:15:15.531Z,56.86
2022-10-15T05:17:45.799Z,57.00
2022-10-15T05:20:13.270Z,56.70
2022-10-15T05:22:40.773Z,56.75
2022-10-15T05:25:15.678Z,56.89
2022-10-15T05:27:43.268Z,56.92
2022-10-15T05:30:13.588Z,57.06
2022-10-15T05:32:53.035Z,57.47
2022-10-15T05:35:22.149Z,57.07
2022-10-15T05:38:04.728Z,56.92
2022-10-15T05:40:32.274Z,56.90
2022-10-15T05:43:05.408Z,56.73
2022-10-15T05:45:32.939Z,56.71
2022-10-15T05:48:05.306Z,56.68
2022-10-15T05:50:33.251Z,56.37
2022-10-15T05:53:02.923Z,56.23
2022-10-15T05:55:33.137Z,56.06
2022-10-15T05:58:04.829Z,55.95
2022-10-15T06:00:32.975Z,55.64
2022-10-15T06:03:00.806Z,55.50
2022-10-15T06:05:28.251Z,55.48
2022-10-15T06:07:56.792Z,55.07
2022-10-15T06:10:24.398Z,54.71
2022-10-15T06:12:51.895Z,54.48
2022-10-15T06:15:19.913Z,54.09
2022-10-15T06:17:47.446Z,54.13
2022-10-15T06:20:14.944Z,54.00
2022-10-15T06:22:42.380Z,53.45
2022-10-15T06:25:10.059Z,53.38
2022-10-15T06:27:38.706Z,53.04
2022-10-15T06:30:06.800Z,53.08
2022-10-15T06:32:34.390Z,53.00
2022-10-15T06:35:01.859Z,52.99
2022-10-15T06:37:30.529Z,52.77
2022-10-15T06:39:59.424Z,52.52
2022-10-15T06:42:26.962Z,52.25
2022-10-15T06:44:56.249Z,52.09
2022-10-15T06:47:26.561Z,52.07
2022-10-15T06:49:54.175Z,52.02
2022-10-15T06:52:22.020Z,51.94
2022-10-15T06:54:49.679Z,51.86
2022-10-15T06:57:19.514Z,51.73
2022-10-15T06:59:46.994Z,51.67
2022-10-15T07:02:14.413Z,51.56
2022-10-15T07:04:41.950Z,51.54
2022-10-15T07:07:09.415Z,51.38
2022-10-15T07:09:36.963Z,51.13
2022-10-15T07:12:04.894Z,50.99
2022-10-15T07:14:32.598Z,50.82
2022-10-15T07:17:00.438Z,50.77
2022-10-15T07:19:29.706Z,50.49
2022-10-15T07:21:57.228Z,50.79
2022-10-15T07:24:24.666Z,50.59
2022-10-15T07:26:52.257Z,50.39
2022-10-15T07:29:19.671Z,50.42
2022-10-15T07:31:48.525Z,50.48
2022-10-15T07:34:17.171Z,50.22
2022-10-15T07:36:44.711Z,50.03
2022-10-15T07:39:12.179Z,49.92
2022-10-15T07:41:39.837Z,49.92
2022-10-15T07:44:07.246Z,49.80
2022-10-15T07:46:34.679Z,49.57
2022-10-15T07:49:02.287Z,49.42
2022-10-15T07:51:29.682Z,49.14
2022-10-15T07:53:57.165Z,49.05
2022-10-15T07:56:24.742Z,48.75
2022-10-15T07:58:52.154Z,48.87
2022-10-15T08:01:21.567Z,48.97
2022-10-15T08:03:49.052Z,48.95
2022-10-15T08:10:12.088Z,48.98
2022-10-15T08:12:42.739Z,48.92
2022-10-15T08:15:10.810Z,48.75
2022-10-15T08:17:38.679Z,48.78
2022-10-15T08:20:06.807Z,48.24
2022-10-15T08:22:34.672Z,48.58
2022-10-15T08:25:02.332Z,47.97
2022-10-15T08:27:31.119Z,47.97
2022-10-15T08:29:58.610Z,47.88
2022-10-15T08:32:26.191Z,48.01
2022-10-15T08:34:53.899Z,48.18
2022-10-15T08:37:21.511Z,47.99
2022-10-15T08:39:49.096Z,47.99
2022-10-15T08:42:23.556Z,47.67
2022-10-15T08:44:56.962Z,47.58
2022-10-15T08:47:29.062Z,47.67
2022-10-15T08:50:01.472Z,47.68
2022-10-15T08:52:44.099Z,47.41
2022-10-15T08:55:14.864Z,47.47
2022-10-15T08:58:13.994Z,47.33
2022-10-15T09:00:51.981Z,47.41
2022-10-15T09:03:41.050Z,46.73
2022-10-15T09:06:30.883Z,46.41
2022-10-15T09:09:30.759Z,46.60
2022-10-15T09:12:07.345Z,46.14
2022-10-15T09:14:39.006Z,46.36
2022-10-15T09:17:28.060Z,46.38
2022-10-15T09:19:58.016Z,46.06
2022-10-15T09:22:28.830Z,45.84
2022-10-15T09:24:57.021Z,45.72
2022-10-15T09:27:35.543Z,45.67
2022-10-15T09:30:23.842Z,45.42
2022-10-15T09:33:03.049Z,45.25
2022-10-15T09:35:43.146Z,45.55
2022-10-15T09:38:32.053Z,45.22
2022-10-15T09:41:17.695Z,45.97
2022-10-15T09:43:49.194Z,46.15
2022-10-15T09:46:17.480Z,46.10
2022-10-15T09:49:08.754Z,46.30
2022-10-15T09:51:50.427Z,46.58
2022-10-15T09:54:29.511Z,46.37
2022-10-15T09:56:57.906Z,46.40
2022-10-15T09:59:25.991Z,46.85
2022-10-15T10:02:02.742Z,47.07
2022-10-15T10:04:34.996Z,46.84
2022-10-15T10:07:07.541Z,46.92
2022-10-15T10:09:50.926Z,47.03
2022-10-15T10:12:22.947Z,46.97
2022-10-15T10:14:59.207Z,47.15
2022-10-15T10:17:29.216Z,47.14
2022-10-15T10:20:19.939Z,47.14
2022-10-15T10:22:53.255Z,46.64
2022-10-15T10:25:26.840Z,46.87
2022-10-15T10:28:17.309Z,46.66
2022-10-15T10:30:56.020Z,46.46
2022-10-15T10:33:35.979Z,47.24
2022-10-15T10:36:05.613Z,47.02
2022-10-15T10:38:38.239Z,47.28
2022-10-15T10:41:09.850Z,47.48
2022-10-15T10:43:40.132Z,47.46
2022-10-15T10:46:14.943Z,47.45
2022-10-15T10:48:52.805Z,47.29
2022-10-15T10:51:28.282Z,47.38
2022-10-15T10:54:01.188Z,47.15
2022-10-15T10:56:38.732Z,47.77
2022-10-15T10:59:32.307Z,47.93
2022-10-15T11:01:59.972Z,47.61
2022-10-15T11:04:31.832Z,47.55
2022-10-15T11:07:21.067Z,47.53
2022-10-15T11:09:58.063Z,47.17
2022-10-15T11:12:58.948Z,47.09
2022-10-15T11:15:47.754Z,46.85
2022-10-15T11:18:25.327Z,46.72
2022-10-15T11:21:30.098Z,46.11
2022-10-15T11:24:03.664Z,46.36
2022-10-15T11:27:09.448Z,46.37
2022-10-15T11:30:05.365Z,46.13
2022-10-15T11:33:05.562Z,46.21
2022-10-15T11:36:10.457Z,45.84
2022-10-15T11:38:52.125Z,46.07
2022-10-15T11:41:47.284Z,46.25
2022-10-15T11:44:34.660Z,46.17
2022-10-15T11:47:22.569Z,46.19
2022-10-15T11:50:10.123Z,46.44
2022-10-15T11:52:48.064Z,46.11
2022-10-15T11:55:30.234Z,45.83
2022-10-15T11:58:01.347Z,45.71
2022-10-15T12:00:40.952Z,45.80
2022-10-15T12:03:22.589Z,45.62
2022-10-15T12:05:59.765Z,45.75
2022-10-15T12:08:35.994Z,45.79
2022-10-15T12:11:29.870Z,45.96
2022-10-15T12:14:12.258Z,45.67
2022-10-15T12:17:06.618Z,45.40
2022-10-15T12:19:54.703Z,45.18
2022-10-15T12:22:40.251Z,44.42
2022-10-15T12:25:33.639Z,44.69
2022-10-15T12:28:18.763Z,43.90
2022-10-15T12:30:58.458Z,43.48
2022-10-15T12:33:35.062Z,43.32
2022-10-15T12:36:11.050Z,43.83
2022-10-15T12:38:50.768Z,43.46
2022-10-15T12:41:18.399Z,43.69
2022-10-15T12:44:05.417Z,44.10
2022-10-15T12:46:39.378Z,44.51
2022-10-15T12:49:32.695Z,44.46
2022-10-15T12:52:01.971Z,44.96
2022-10-15T12:54:40.164Z,45.01
2022-10-15T12:57:46.073Z,45.86
2022-10-15T13:00:33.643Z,46.37
2022-10-15T13:03:19.106Z,46.38
2022-10-15T13:05:47.921Z,46.61
2022-10-15T13:08:25.691Z,46.81
2022-10-15T13:11:02.021Z,47.19
2022-10-15T13:13:32.637Z,47.45
2022-10-15T13:16:07.742Z,47.61
2022-10-15T13:18:36.373Z,47.87
2022-10-15T13:21:04.677Z,48.08
2022-10-15T13:23:34.573Z,48.12
2022-10-15T13:26:20.708Z,48.70
2022-10-15T13:28:50.648Z,48.84
2022-10-15T13:31:30.405Z,49.70
2022-10-15T13:34:14.358Z,49.59
2022-10-15T13:36:42.328Z,49.19
2022-10-15T13:39:24.138Z,49.64
2022-10-15T13:41:52.304Z,49.15
2022-10-15T13:44:24.130Z,49.28
2022-10-15T13:46:51.966Z,49.19
2022-10-15T13:49:21.505Z,49.22
2022-10-15T13:51:53.332Z,49.67
2022-10-15T13:54:25.058Z,49.67
2022-10-15T13:56:59.443Z,49.59
2022-10-15T13:59:29.823Z,49.43
2022-10-15T14:02:04.539Z,49.63
2022-10-15T14:04:33.215Z,49.66
2022-10-15T14:07:18.470Z,49.54
2022-10-15T14:09:47.247Z,49.52
2022-10-15T14:12:14.894Z,49.69
2022-10-15T14:14:48.183Z,49.72
2022-10-15T14:17:26.974Z,50.07
2022-10-15T14:20:25.742Z,50.26
2022-10-15T14:22:49.646Z,50.15
2022-10-15T14:25:23.588Z,50.63
2022-10-15T14:27:52.214Z,50.17
2022-10-15T14:30:34.495Z,50.70
2022-10-15T14:33:02.063Z,50.43
2022-10-15T14:35:34.240Z,50.92
2022-10-15T14:38:16.465Z,51.26
2022-10-15T14:41:06.369Z,51.62
2022-10-15T14:43:38.392Z,51.18
2022-10-15T14:46:13.357Z,51.30
2022-10-15T14:48:43.619Z,51.34
2022-10-15T14:51:25.287Z,51.81
2022-10-15T14:53:53.873Z,51.33
2022-10-15T14:56:24.507Z,51.58
2022-10-15T14:58:56.918Z,51.89
2022-10-15T15:01:25.330Z,51.71
2022-10-15T15:03:55.211Z,51.89
2022-10-15T15:06:23.357Z,51.96
2022-10-15T15:08:51.051Z,51.89
2022-10-15T15:11:23.003Z,52.20
2022-10-15T15:13:51.652Z,52.07
2022-10-15T15:16:19.475Z,52.13
2022-10-15T15:18:49.038Z,52.11
2022-10-15T15:21:24.022Z,52.76
2022-10-15T15:23:51.706Z,52.31
2022-10-15T15:26:19.288Z,52.38
2022-10-15T15:28:46.781Z,52.19
2022-10-15T15:31:17.922Z,52.77
2022-10-15T15:33:46.126Z,52.64
2022-10-15T15:36:19.088Z,52.95
2022-10-15T15:38:51.610Z,52.79
2022-10-15T15:41:21.850Z,53.15
2022-10-15T15:43:50.008Z,53.28
2022-10-15T15:46:17.726Z,53.38
2022-10-15T15:48:54.419Z,53.41
2022-10-15T15:51:25.846Z,53.78
2022-10-15T15:53:53.690Z,53.84
2022-10-15T15:56:21.310Z,53.85
2022-10-15T15:58:50.453Z,54.42
2022-10-15T16:01:19.127Z,54.45
2022-10-15T16:03:47.446Z,54.15
2022-10-15T16:06:15.302Z,54.15
2022-10-15T16:08:42.883Z,54.49
2022-10-15T16:11:10.387Z,54.64
2022-10-15T16:13:38.103Z,54.63
2022-10-15T16:16:05.899Z,54.44
2022-10-15T16:18:33.414Z,54.73
2022-10-15T16:21:00.928Z,54.62
2022-10-15T16:23:28.461Z,54.58
2022-10-15T16:25:57.596Z,54.77
2022-10-15T16:28:25.179Z,54.72
2022-10-15T16:30:52.640Z,54.58
2022-10-15T16:33:20.307Z,54.58
2022-10-15T16:35:53.919Z,55.11
2022-10-15T16:38:21.415Z,54.76
2022-10-15T16:40:48.815Z,54.54
2022-10-15T16:43:16.326Z,54.44
2022-10-15T16:45:43.725Z,54.48
2022-10-15T16:48:11.729Z,54.79
2022-10-15T16:50:39.126Z,54.38
2022-10-15T16:53:06.542Z,54.38
2022-10-15T16:55:34.118Z,54.38
2022-10-15T16:58:01.539Z,54.46
2022-10-15T17:00:29.240Z,54.44
2022-10-15T17:02:56.772Z,54.19
2022-10-15T17:05:24.340Z,54.26
2022-10-15T17:07:51.846Z,54.28
2022-10-15T17:10:25.637Z,54.55
2022-10-15T17:12:53.210Z,54.46
2022-10-15T17:15:20.695Z,54.27
2022-10-15T17:17:48.788Z,54.16
2022-10-15T17:20:16.326Z,54.11
2022-10-15T17:22:43.875Z,54.03
2022-10-15T17:25:11.277Z,54.12
2022-10-15T17:27:38.950Z,54.24
2022-10-15T17:30:07.161Z,54.14
2022-10-15T17:32:34.662Z,53.96
2022-10-15T17:35:03.994Z,54.30
2022-10-15T17:37:32.527Z,54.19
2022-10-15T17:40:00.135Z,54.17
2022-10-15T17:42:28.304Z,53.72
2022-10-15T17:44:55.929Z,53.50
2022-10-15T17:47:23.893Z,53.80
2022-10-15T17:49:51.672Z,54.01
2022-10-15T17:52:19.291Z,53.62
2022-10-15T17:54:47.293Z,53.47
2022-10-15T17:57:14.770Z,53.35
2022-10-15T17:59:42.262Z,53.69
2022-10-15T18:02:10.368Z,53.67
2022-10-15T18:04:40.248Z,53.42
2022-10-15T18:07:08.067Z,53.54
2022-10-15T18:09:36.133Z,53.31
2022-10-15T18:12:03.801Z,53.24
2022-10-15T18:14:34.276Z,52.89
2022-10-15T18:17:02.036Z,53.16
2022-10-15T18:19:29.808Z,53.41
2022-10-15T18:21:57.825Z,53.04
2022-10-15T18:24:25.373Z,52.90
2022-10-15T18:26:53.276Z,52.66
2022-10-15T18:29:22.584Z,52.62
2022-10-15T18:31:54.736Z,52.64
2022-10-15T18:34:24.092Z,52.63
2022-10-15T18:36:51.536Z,52.52
2022-10-15T18:39:20.063Z,52.75
2022-10-15T18:41:47.761Z,52.38
2022-10-15T18:44:16.936Z,52.37
2022-10-15T18:46:45.718Z,52.36
2022-10-15T18:49:15.863Z,51.95
2022-10-15T18:51:46.238Z,52.09
2022-10-15T18:54:13.759Z,51.84
2022-10-15T18:56:41.632Z,52.07
2022-10-15T18:59:09.444Z,52.15
2022-10-15T19:01:41.717Z,52.36
2022-10-15T19:04:14.781Z,52.39
2022-10-15T19:06:50.705Z,52.41
2022-10-15T19:09:26.465Z,52.62
2022-10-15T19:11:56.037Z,52.32
2022-10-15T19:14:25.594Z,52.37
2022-10-15T19:16:53.394Z,52.52
2022-10-15T19:19:22.510Z,52.63
2022-10-15T19:21:51.396Z,52.23
2022-10-15T19:24:21.462Z,52.76
2022-10-15T19:26:51.229Z,53.15
2022-10-15T19:29:19.214Z,53.01
2022-10-15T19:31:48.943Z,52.85
2022-10-15T19:34:16.466Z,52.31
2022-10-15T19:36:47.704Z,52.70
2022-10-15T19:39:21.398Z,52.22
2022-10-15T19:41:49.828Z,52.61
2022-10-15T19:44:24.887Z,52.37
2022-10-15T19:46:52.891Z,52.31
2022-10-15T19:49:21.124Z,52.67
2022-10-15T19:51:49.730Z,52.28
2022-10-15T19:54:17.734Z,52.28
2022-10-15T19:56:45.338Z,52.13
2022-10-15T19:59:16.963Z,52.18
2022-10-15T20:01:44.523Z,52.33
2022-10-15T20:04:12.084Z,52.38
2022-10-15T20:06:39.664Z,52.33
2022-10-15T20:09:08.846Z,52.36
2022-10-15T20:11:37.443Z,51.91
2022-10-15T20:14:05.604Z,51.83
2022-10-15T20:16:33.667Z,52.27
2022-10-15T20:19:03.797Z,52.10
2022-10-15T20:21:32.205Z,52.18
2022-10-15T20:24:04.271Z,52.22
2022-10-15T20:26:32.758Z,51.94
2022-10-15T20:29:00.433Z,52.21
2022-10-15T20:31:32.795Z,52.07
2022-10-15T20:34:01.254Z,51.92
2022-10-15T20:36:28.893Z,51.52
2022-10-15T20:38:57.578Z,52.05
2022-10-15T20:41:25.167Z,52.05
2022-10-15T20:43:55.124Z,52.15
2022-10-15T20:46:33.084Z,52.17
2022-10-15T20:49:08.480Z,52.25
2022-10-15T20:51:39.856Z,52.30
2022-10-15T20:54:07.949Z,52.22
2022-10-15T20:56:35.581Z,51.77
2022-10-15T20:59:05.154Z,51.99
2022-10-15T21:01:34.682Z,51.89
2022-10-15T21:04:02.702Z,51.92
2022-10-15T21:06:30.918Z,51.74
2022-10-15T21:08:58.761Z,51.78
2022-10-15T21:11:26.400Z,51.83
2022-10-15T21:13:53.885Z,51.68
2022-10-15T21:16:24.506Z,51.48
2022-10-15T21:18:55.206Z,51.65
2022-10-15T21:21:22.603Z,51.85
2022-10-15T21:23:50.095Z,51.42
2022-10-15T21:26:18.711Z,51.73
2022-10-15T21:28:46.567Z,51.15
2022-10-15T21:31:16.487Z,51.25
2022-10-15T21:33:46.168Z,51.05
2022-10-15T21:36:21.707Z,51.39
2022-10-15T21:38:54.089Z,51.24
2022-10-15T21:41:23.045Z,51.29
2022-10-15T21:43:50.928Z,51.58
2022-10-15T21:46:18.613Z,51.77
2022-10-15T21:48:46.538Z,51.53
2022-10-15T21:51:16.350Z,51.85
2022-10-15T21:53:44.390Z,51.83
2022-10-15T21:56:12.185Z,51.96
2022-10-15T21:58:41.281Z,51.89
2022-10-15T22:01:14.610Z,52.04
2022-10-15T22:03:45.796Z,51.86
2022-10-15T22:06:13.975Z,51.92
2022-10-15T22:08:41.694Z,51.84
2022-10-15T22:14:03.701Z,51.90
2022-10-15T22:16:33.936Z,52.23
2022-10-15T22:19:02.077Z,52.00
2022-10-15T22:21:35.194Z,52.21
2022-10-15T22:24:08.691Z,52.13
2022-10-15T22:26:39.182Z,52.51
2022-10-15T22:29:09.309Z,52.31
2022-10-15T22:31:36.931Z,52.26
2022-10-15T22:34:04.356Z,52.44
2022-10-15T22:36:31.994Z,52.36
2022-10-15T22:39:02.430Z,52.63
2022-10-15T22:41:32.877Z,52.75
2022-10-15T22:44:00.839Z,52.75
2022-10-15T22:46:28.360Z,52.59
2022-10-15T22:48:55.919Z,52.95
2022-10-15T22:51:23.340Z,52.73
2022-10-15T22:53:54.585Z,52.91
2022-10-15T22:56:22.734Z,52.93
2022-10-15T22:58:50.668Z,52.87
2022-10-15T23:01:23.751Z,52.92
2022-10-15T23:03:54.054Z,53.27
2022-10-15T23:06:22.787Z,53.35
2022-10-15T23:08:50.495Z,53.25
2022-10-15T23:11:23.731Z,53.22
2022-10-15T23:13:56.679Z,53.75
2022-10-15T23:16:29.356Z,53.61
2022-10-15T23:18:59.731Z,53.33
2022-10-15T23:21:34.835Z,53.74
2022-10-15T23:24:02.597Z,53.41
2022-10-15T23:26:30.599Z,53.78
2022-10-15T23:28:59.826Z,53.77
2022-10-15T23:31:30.317Z,53.78
2022-10-15T23:33:59.077Z,53.82
2022-10-15T23:36:28.152Z,53.60
2022-10-15T23:39:01.198Z,53.92
2022-10-15T23:41:29.759Z,53.67
2022-10-15T23:43:57.686Z,53.92
2022-10-15T23:46:25.416Z,53.90
2022-10-15T23:48:52.858Z,54.26
2022-10-15T23:51:29.301Z,54.56
2022-10-15T23:53:59.061Z,54.08
2022-10-15T23:56:27.485Z,54.26
2022-10-15T23:58:57.759Z,54.46
